Time;durP1;ratioP1;P1;durP2;ratioP2;P2;SDS_P1;SDS_P2;PMS_P1;PMS_P2;Temp;Humidity;BMP_temperature;BMP_pressure;BME280_temperature;BME280_humidity;BME280_pressure;Samples;Min_cycle;Max_cycle;Signal;HPM_P1;HPM_P2
2021/12/10 00:02:18;;;;;;;3.10;0.53;;;;;;;;;;10485946;28;20154;-71
2021/12/10 00:07:43;;;;;;;0.83;0.30;;;;;;;;;;10493368;28;20047;-71
2021/12/10 00:13:07;;;;;;;1.30;0.57;;;;;;;;;;10484548;28;20472;-72
2021/12/10 00:18:35;;;;;;;0.50;0.47;;;;;;;;;;10503505;28;20055;-68
2021/12/10 00:24:01;;;;;;;5.30;1.30;;;;;;;;;;10522221;28;20054;-71
2021/12/10 00:29:24;;;;;;;3.03;1.10;;;;;;;;;;10508977;28;20123;-70
2021/12/10 00:34:50;;;;;;;2.13;0.87;;;;;;;;;;10509633;28;20048;-71
2021/12/10 00:40:15;;;;;;;0.60;0.50;;;;;;;;;;10527392;28;20044;-69
2021/12/10 00:45:39;;;;;;;6.30;0.70;;;;;;;;;;10527309;28;20040;-70
2021/12/10 00:51:02;;;;;;;0.63;0.53;;;;;;;;;;10532961;28;20046;-70
2021/12/10 00:56:27;;;;;;;2.87;1.00;;;;;;;;;;10516167;28;20100;-70
2021/12/10 01:01:50;;;;;;;0.83;0.50;;;;;;;;;;10504137;28;20047;-69
2021/12/10 01:07:15;;;;;;;3.30;1.23;;;;;;;;;;10520542;28;20127;-69
2021/12/10 01:12:42;;;;;;;2.50;1.33;;;;;;;;;;10499839;28;20401;-69
2021/12/10 01:23:52;;;;;;;1.10;0.70;;;;;;;;;;10504547;28;20470;-70
2021/12/10 01:29:18;;;;;;;4.03;1.80;;;;;;;;;;10487397;28;20548;-70
2021/12/10 01:34:42;;;;;;;1.67;0.70;;;;;;;;;;10508234;28;20069;-72
2021/12/10 01:40:06;;;;;;;1.87;0.90;;;;;;;;;;10493887;28;20121;-70
2021/12/10 01:45:31;;;;;;;6.10;1.33;;;;;;;;;;10510213;28;20048;-70
2021/12/10 01:50:55;;;;;;;5.00;0.83;;;;;;;;;;10503994;28;20426;-70
2021/12/10 01:56:20;;;;;;;1.33;1.00;;;;;;;;;;10498655;28;20060;-68
2021/12/10 02:01:43;;;;;;;;;;;;;;;;;;10506186;28;20040;-68
2021/12/10 02:07:12;;;;;;;8.07;1.00;;;;;;;;;;10507260;28;20371;-70
2021/12/10 02:12:35;;;;;;;1.13;0.57;;;;;;;;;;10509433;28;20041;-69
2021/12/10 02:17:59;;;;;;;0.90;0.60;;;;;;;;;;10480398;28;20055;-70
2021/12/10 02:23:24;;;;;;;1.90;0.73;;;;;;;;;;10502315;28;20667;-69
2021/12/10 02:28:48;;;;;;;2.17;0.93;;;;;;;;;;10505101;28;20044;-69
2021/12/10 02:34:11;;;;;;;2.37;1.17;;;;;;;;;;10513437;28;20036;-67
2021/12/10 02:39:36;;;;;;;0.87;0.63;;;;;;;;;;10491173;28;20400;-68
2021/12/10 02:44:59;;;;;;;2.03;1.00;;;;;;;;;;10494527;28;20045;-69
2021/12/10 02:50:24;;;;;;;3.13;1.10;;;;;;;;;;10488296;28;20112;-67
2021/12/10 02:55:49;;;;;;;1.90;0.80;;;;;;;;;;10485708;28;20052;-67
2021/12/10 03:01:14;;;;;;;3.00;1.00;;;;;;;;;;10498406;28;20202;-68
2021/12/10 03:06:40;;;;;;;0.83;0.30;;;;;;;;;;10487523;28;20460;-67
2021/12/10 03:12:06;;;;;;;0.43;0.27;;;;;;;;;;10484992;28;20054;-69
2021/12/10 03:17:30;;;;;;;1.83;0.80;;;;;;;;;;10503519;28;20416;-70
2021/12/10 03:22:53;;;;;;;0.30;0.30;;;;;;;;;;10500248;28;20041;-70
2021/12/10 03:28:18;;;;;;;0.83;0.57;;;;;;;;;;10491124;28;20096;-69
2021/12/10 03:33:41;;;;;;;;;;;;;;;;;;10487826;28;20491;-69
2021/12/10 03:39:05;;;;;;;0.20;0.20;;;;;;;;;;10499548;28;19930;-69
2021/12/10 03:44:30;;;;;;;0.90;0.20;;;;;;;;;;10487609;28;20551;-69
2021/12/10 03:49:54;;;;;;;0.80;0.70;;;;;;;;;;10496448;28;20036;-68
2021/12/10 03:55:18;;;;;;;2.10;0.60;;;;;;;;;;10485041;28;20049;-71
2021/12/10 04:00:41;;;;;;;;;;;;;;;;;;10495349;28;20699;-68
2021/12/10 04:06:07;;;;;;;1.60;0.67;;;;;;;;;;10497716;28;19920;-69
2021/12/10 04:11:30;;;;;;;;;;;;;;;;;;10512029;28;20133;-69
2021/12/10 04:16:56;;;;;;;2.50;0.60;;;;;;;;;;10493881;28;19920;-69
2021/12/10 04:22:22;;;;;;;0.47;0.27;;;;;;;;;;10497127;28;20052;-69
2021/12/10 04:27:47;;;;;;;1.73;0.50;;;;;;;;;;10493197;28;20124;-68
2021/12/10 04:33:12;;;;;;;0.70;0.32;;;;;;;;;;10540860;22;20058;-77
2021/12/10 04:38:37;;;;;;;0.93;0.47;;;;;;;;;;10580102;27;20039;-76
2021/12/10 04:44:01;;;;;;;1.30;0.63;;;;;;;;;;10582180;27;20048;-78
2021/12/10 04:49:24;;;;;;;0.23;0.23;;;;;;;;;;10599737;27;20540;-77
2021/12/10 04:54:49;;;;;;;0.50;0.40;;;;;;;;;;10578800;27;20139;-77
2021/12/10 05:00:14;;;;;;;1.47;0.63;;;;;;;;;;10600185;27;20039;-78
2021/12/10 05:05:38;;;;;;;2.80;0.60;;;;;;;;;;10597724;27;20109;-76
2021/12/10 05:11:03;;;;;;;0.37;0.23;;;;;;;;;;10584993;27;20635;-79
2021/12/10 05:16:27;;;;;;;1.77;0.83;;;;;;;;;;10590913;27;20131;-78
2021/12/10 05:21:52;;;;;;;1.20;0.40;;;;;;;;;;10575605;28;20188;-77
2021/12/10 05:27:16;;;;;;;0.50;0.50;;;;;;;;;;10587670;27;20035;-77
2021/12/10 05:32:40;;;;;;;0.87;0.10;;;;;;;;;;10587689;27;20129;-77
2021/12/10 05:38:03;;;;;;;0.33;0.27;;;;;;;;;;10592724;27;20039;-77
2021/12/10 05:43:28;;;;;;;0.47;0.40;;;;;;;;;;10611806;27;20075;-77
2021/12/10 05:48:51;;;;;;;0.77;0.60;;;;;;;;;;10582280;27;20651;-77
2021/12/10 05:54:15;;;;;;;0.60;0.43;;;;;;;;;;10595520;27;20052;-77
2021/12/10 05:59:40;;;;;;;3.13;0.93;;;;;;;;;;10597852;27;20093;-77
2021/12/10 06:05:03;;;;;;;1.57;1.07;;;;;;;;;;10610031;27;20059;-78
2021/12/10 06:10:32;;;;;;;0.50;0.50;;;;;;;;;;10614483;27;20031;-77
2021/12/10 06:15:56;;;;;;;3.33;1.30;;;;;;;;;;10602186;27;20047;-78
2021/12/10 06:21:20;;;;;;;2.67;0.98;;;;;;;;;;10599549;27;20294;-76
2021/12/10 06:26:43;;;;;;;0.10;0.10;;;;;;;;;;10592912;27;20032;-78
2021/12/10 06:32:08;;;;;;;1.90;1.10;;;;;;;;;;10588941;27;20521;-79
2021/12/10 06:37:32;;;;;;;6.33;2.40;;;;;;;;;;10619436;27;20066;-77
2021/12/10 06:42:55;;;;;;;3.80;1.40;;;;;;;;;;10608412;27;20047;-76
2021/12/10 06:48:21;;;;;;;7.30;2.47;;;;;;;;;;10585310;27;20044;-76
2021/12/10 06:53:45;;;;;;;5.80;1.73;;;;;;;;;;10550898;27;20048;-79
2021/12/10 06:59:10;;;;;;;6.77;2.17;;;;;;;;;;10560473;27;20031;-77
2021/12/10 07:04:39;;;;;;;13.43;5.57;;;;;;;;;;10535474;27;20122;-77
2021/12/10 07:10:03;;;;;;;5.10;2.70;;;;;;;;;;10550443;27;20043;-78
2021/12/10 07:15:27;;;;;;;13.13;5.82;;;;;;;;;;10537782;27;20396;-77
2021/12/10 07:28:53;;;;;;;12.30;5.13;;;;;;;;;;10532137;27;1336482;-70
2021/12/10 07:33:56;;;;;;;3.43;2.10;;;;;;;;;;10525207;28;20126;-67
2021/12/10 07:38:59;;;;;;;1.53;1.13;;;;;;;;;;10517847;22;20689;-74
2021/12/10 07:44:04;;;;;;;2.23;1.40;;;;;;;;;;10497925;28;20127;-74
2021/12/10 07:49:15;;;;;;;6.07;3.43;;;;;;;;;;10475550;28;20400;-74
2021/12/10 07:54:17;;;;;;;4.07;1.63;;;;;;;;;;10462392;28;20647;-74
2021/12/10 07:59:26;;;;;;;5.77;2.73;;;;;;;;;;10468472;28;20051;-74
2021/12/10 08:04:29;;;;;;;;;;;;;;;;;;10471459;28;20065;-74
2021/12/10 08:09:32;;;;;;;7.60;3.13;;;;;;;;;;10467638;28;19947;-74
2021/12/10 08:14:37;;;;;;;3.50;1.70;;;;;;;;;;10463633;28;20123;-74
2021/12/10 08:19:39;;;;;;;;;;;;;;;;;;10464297;28;20075;-76
2021/12/10 08:24:42;;;;;;;2.40;1.50;;;;;;;;;;10470665;28;20563;-75
2021/12/10 08:29:48;;;;;;;5.78;2.10;;;;;;;;;;10455966;28;20249;-74
2021/12/10 08:34:51;;;;;;;4.82;2.47;;;;;;;;;;10448213;28;20047;-74
2021/12/10 08:39:55;;;;;;;6.37;2.60;;;;;;;;;;10449667;28;20044;-73
2021/12/10 08:44:59;;;;;;;7.70;2.57;;;;;;;;;;10443798;28;20407;-75
2021/12/10 08:50:02;;;;;;;4.38;2.38;;;;;;;;;;10451727;28;20039;-74
2021/12/10 08:55:06;;;;;;;5.20;2.33;;;;;;;;;;10420612;28;20041;-75
2021/12/10 09:00:12;;;;;;;6.97;2.63;;;;;;;;;;10440776;28;20055;-75
2021/12/10 09:05:15;;;;;;;4.88;2.53;;;;;;;;;;10453438;28;20047;-74
2021/12/10 09:10:20;;;;;;;6.33;3.17;;;;;;;;;;10436305;28;20484;-72
2021/12/10 09:15:27;;;;;;;4.25;2.60;;;;;;;;;;10450674;28;20063;-75
2021/12/10 09:20:31;;;;;;;6.53;2.50;;;;;;;;;;10477065;28;20113;-74
2021/12/10 09:25:34;;;;;;;7.35;3.63;;;;;;;;;;10477875;28;20067;-73
2021/12/10 09:30:41;;;;;;;4.67;2.40;;;;;;;;;;10481843;28;20037;-74
2021/12/10 09:35:44;;;;;;;5.10;2.65;;;;;;;;;;10476728;28;20040;-74
2021/12/10 09:40:48;;;;;;;3.03;2.22;;;;;;;;;;10458128;28;20057;-73
2021/12/10 09:45:54;;;;;;;5.60;2.88;;;;;;;;;;10428283;28;20044;-74
2021/12/10 09:50:58;;;;;;;9.48;3.35;;;;;;;;;;10425233;28;20041;-74
2021/12/10 09:56:04;;;;;;;7.30;3.45;;;;;;;;;;10440748;28;20039;-74
2021/12/10 10:01:09;;;;;;;4.95;2.78;;;;;;;;;;10447884;28;20029;-75
2021/12/10 10:06:14;;;;;;;5.45;2.90;;;;;;;;;;10430801;28;20132;-74
2021/12/10 10:11:18;;;;;;;14.90;2.73;;;;;;;;;;10437046;28;20068;-73
2021/12/10 10:16:23;;;;;;;3.63;1.67;;;;;;;;;;10446620;28;20299;-74
2021/12/10 10:21:28;;;;;;;4.22;2.13;;;;;;;;;;10441017;28;20340;-74
2021/12/10 10:26:33;;;;;;;3.37;1.43;;;;;;;;;;10428761;28;20469;-74
2021/12/10 10:31:39;;;;;;;3.97;1.73;;;;;;;;;;10431480;28;20095;-73
2021/12/10 10:36:42;;;;;;;2.70;1.57;;;;;;;;;;10438718;28;20044;-75
2021/12/10 10:41:47;;;;;;;3.73;1.93;;;;;;;;;;10438617;28;20086;-75
2021/12/10 10:46:49;;;;;;;;;;;;;;;;;;10446479;28;20091;-74
2021/12/10 10:51:55;;;;;;;2.60;1.07;;;;;;;;;;10448060;28;19955;-74
2021/12/10 10:56:59;;;;;;;3.27;1.87;;;;;;;;;;10465448;28;20061;-72
2021/12/10 11:02:07;;;;;;;5.68;2.33;;;;;;;;;;10454242;28;20079;-73
2021/12/10 11:07:18;;;;;;;3.40;1.47;;;;;;;;;;10469537;28;20059;-73
2021/12/10 11:12:25;;;;;;;6.47;2.03;;;;;;;;;;10472678;28;20112;-73
2021/12/10 11:17:29;;;;;;;4.97;1.43;;;;;;;;;;10471407;28;20029;-73
2021/12/10 11:22:34;;;;;;;1.87;1.27;;;;;;;;;;10469433;28;20037;-73
2021/12/10 11:27:37;;;;;;;;;;;;;;;;;;10471802;28;20091;-72
2021/12/10 11:32:41;;;;;;;3.43;1.13;;;;;;;;;;10466397;28;19928;-73
2021/12/10 11:37:55;;;;;;;9.10;3.60;;;;;;;;;;10478944;28;20042;-72
2021/12/10 11:43:03;;;;;;;;;;;;;;;;;;10476038;28;20049;-71
2021/12/10 11:48:10;;;;;;;3.13;1.53;;;;;;;;;;10471420;28;19920;-73
2021/12/10 11:53:17;;;;;;;6.47;2.13;;;;;;;;;;10466168;28;20455;-72
2021/12/10 11:58:20;;;;;;;5.50;2.00;;;;;;;;;;10455654;28;20607;-73
2021/12/10 12:03:29;;;;;;;3.67;1.73;;;;;;;;;;10451305;28;20138;-72
2021/12/10 12:08:36;;;;;;;3.40;1.43;;;;;;;;;;10437389;28;20519;-74
2021/12/10 12:13:43;;;;;;;5.97;2.13;;;;;;;;;;10443339;28;20037;-74
2021/12/10 12:18:47;;;;;;;5.17;1.97;;;;;;;;;;10451434;28;20033;-73
2021/12/10 12:29:19;;;;;;;5.55;2.47;;;;;;;;;;10414070;28;20049;-72
2021/12/10 12:34:24;;;;;;;6.40;3.55;;;;;;;;;;10436720;28;20040;-72
2021/12/10 12:39:39;;;;;;;2.60;1.83;;;;;;;;;;10439663;28;20033;-73
2021/12/10 12:44:42;;;;;;;7.67;2.43;;;;;;;;;;10437898;28;20276;-74
2021/12/10 12:50:09;;;;;;;4.47;2.05;;;;;;;;;;10454852;28;20095;-72
2021/12/10 12:55:19;;;;;;;5.90;2.13;;;;;;;;;;10442926;28;20099;-72
2021/12/10 13:00:25;;;;;;;4.55;2.00;;;;;;;;;;10443202;28;20352;-72
2021/12/10 13:05:32;;;;;;;2.20;0.90;;;;;;;;;;10444697;28;20144;-73
2021/12/10 13:10:46;;;;;;;4.72;2.20;;;;;;;;;;10446304;28;20068;-73
2021/12/10 13:15:51;;;;;;;3.07;1.53;;;;;;;;;;10435062;28;20130;-72
2021/12/10 13:20:53;;;;;;;5.13;2.43;;;;;;;;;;10449835;28;20129;-74
2021/12/10 13:25:59;;;;;;;6.47;1.80;;;;;;;;;;10433153;28;20040;-73
2021/12/10 13:31:05;;;;;;;1.07;0.63;;;;;;;;;;10444524;28;20611;-74
2021/12/10 13:36:10;;;;;;;4.10;2.17;;;;;;;;;;10440168;28;20079;-73
2021/12/10 13:41:16;;;;;;;8.20;2.00;;;;;;;;;;10434505;28;20045;-73
2021/12/10 13:46:21;;;;;;;10.27;3.20;;;;;;;;;;10440564;28;20041;-73
2021/12/10 13:51:25;;;;;;;3.60;1.70;;;;;;;;;;10438407;28;20079;-74
2021/12/10 13:56:29;;;;;;;4.80;1.73;;;;;;;;;;10461664;28;20037;-72
2021/12/10 14:01:34;;;;;;;4.20;1.70;;;;;;;;;;10482082;28;20308;-72
2021/12/10 14:06:44;;;;;;;4.40;1.90;;;;;;;;;;10463962;28;20119;-73
2021/12/10 14:12:02;;;;;;;6.07;1.63;;;;;;;;;;10452840;28;20072;-73
2021/12/10 14:17:07;;;;;;;7.00;1.87;;;;;;;;;;10439849;28;20053;-73
2021/12/10 14:22:40;;;;;;;5.13;1.47;;;;;;;;;;10463371;28;20045;-72
2021/12/10 14:28:06;;;;;;;4.77;1.90;;;;;;;;;;10444382;28;20489;-73
2021/12/10 14:33:31;;;;;;;0.77;0.60;;;;;;;;;;10451609;28;20044;-75
2021/12/10 14:38:41;;;;;;;3.00;1.30;;;;;;;;;;10462824;28;20086;-71
2021/12/10 14:44:05;;;;;;;2.03;0.87;;;;;;;;;;10456443;28;20477;-73
2021/12/10 14:49:08;;;;;;;;;;;;;;;;;;10464119;28;20169;-72
2021/12/10 14:54:34;;;;;;;4.37;1.70;;;;;;;;;;10463904;28;19963;-73
2021/12/10 14:59:57;;;;;;;10.47;1.97;;;;;;;;;;10452331;28;20040;-73
2021/12/10 15:05:21;;;;;;;1.30;0.60;;;;;;;;;;10458518;28;20052;-73
2021/12/10 15:10:48;;;;;;;4.90;1.73;;;;;;;;;;10460129;28;20029;-73
2021/12/10 15:16:13;;;;;;;3.57;1.40;;;;;;;;;;10442914;28;20130;-71
2021/12/10 15:21:19;;;;;;;1.47;0.83;;;;;;;;;;10440875;28;20059;-72
2021/12/10 15:26:24;;;;;;;1.17;1.00;;;;;;;;;;10431996;28;20040;-72
2021/12/10 15:31:27;;;;;;;4.37;1.30;;;;;;;;;;10433222;28;20059;-73
2021/12/10 15:36:30;;;;;;;3.60;1.70;;;;;;;;;;10445526;28;20451;-72
2021/12/10 15:41:36;;;;;;;4.93;1.83;;;;;;;;;;10431183;28;20144;-73
2021/12/10 15:46:41;;;;;;;1.83;0.97;;;;;;;;;;10436569;28;20508;-72
2021/12/10 15:51:46;;;;;;;2.73;1.67;;;;;;;;;;10439653;28;20036;-73
2021/12/10 15:56:52;;;;;;;4.70;1.30;;;;;;;;;;10423440;28;20036;-72
2021/12/10 16:01:56;;;;;;;5.93;2.40;;;;;;;;;;10448612;28;20045;-74
2021/12/10 16:07:02;;;;;;;3.30;1.97;;;;;;;;;;10442860;28;20374;-72
2021/12/10 16:12:07;;;;;;;2.37;0.83;;;;;;;;;;10439155;28;20436;-72
2021/12/10 16:17:12;;;;;;;2.90;1.43;;;;;;;;;;10435087;28;20048;-73
2021/12/10 16:22:17;;;;;;;2.27;1.00;;;;;;;;;;10432205;28;20575;-74
2021/12/10 16:27:24;;;;;;;4.00;1.60;;;;;;;;;;10445079;28;20088;-72
2021/12/10 16:32:28;;;;;;;1.47;0.97;;;;;;;;;;10437204;28;20669;-72
2021/12/10 16:37:32;;;;;;;3.75;2.13;;;;;;;;;;10449870;28;20090;-74
2021/12/10 16:42:36;;;;;;;7.88;2.60;;;;;;;;;;10433273;28;20136;-72
2021/12/10 16:47:39;;;;;;;;;;;;;;;;;;10445615;28;20037;-71
2021/12/10 16:52:42;;;;;;;4.60;2.10;;;;;;;;;;10426771;28;20023;-72
2021/12/10 16:57:50;;;;;;;2.27;1.30;;;;;;;;;;10432947;28;20037;-72
2021/12/10 17:02:55;;;;;;;4.57;2.80;;;;;;;;;;10443233;28;20075;-72
2021/12/10 17:08:00;;;;;;;1.63;0.93;;;;;;;;;;10454782;28;20660;-72
2021/12/10 17:13:06;;;;;;;4.23;1.70;;;;;;;;;;10440697;28;20037;-73
2021/12/10 17:18:11;;;;;;;11.30;4.37;;;;;;;;;;10438319;28;20052;-72
2021/12/10 17:23:15;;;;;;;4.80;1.97;;;;;;;;;;10432347;28;20053;-72
2021/12/10 17:28:20;;;;;;;3.45;1.60;;;;;;;;;;10426591;28;20033;-72
2021/12/10 17:33:25;;;;;;;14.20;4.30;;;;;;;;;;10443272;28;20048;-72
2021/12/10 17:38:28;;;;;;;2.83;1.70;;;;;;;;;;10420899;28;20122;-72
2021/12/10 17:43:35;;;;;;;9.43;3.40;;;;;;;;;;10433717;28;20045;-72
2021/12/10 17:48:41;;;;;;;4.23;2.00;;;;;;;;;;10440835;28;20252;-72
2021/12/10 17:53:45;;;;;;;2.33;1.50;;;;;;;;;;10432515;28;20127;-73
2021/12/10 17:58:51;;;;;;;5.57;3.00;;;;;;;;;;10433575;28;20478;-73
2021/12/10 18:03:55;;;;;;;1.13;0.80;;;;;;;;;;10418146;28;20048;-73
2021/12/10 18:09:05;;;;;;;6.10;1.27;;;;;;;;;;10429707;28;20639;-73
2021/12/10 18:14:09;;;;;;;4.93;2.37;;;;;;;;;;10433663;28;20077;-73
2021/12/10 18:19:13;;;;;;;9.10;3.50;;;;;;;;;;10432240;28;20045;-72
2021/12/10 18:24:17;;;;;;;5.38;2.60;;;;;;;;;;10436140;28;20041;-72
2021/12/10 18:29:24;;;;;;;3.97;2.27;;;;;;;;;;10439633;28;20379;-73
2021/12/10 18:34:28;;;;;;;3.43;2.00;;;;;;;;;;10433472;28;20107;-73
2021/12/10 18:39:34;;;;;;;3.37;2.10;;;;;;;;;;10457741;28;20037;-73
2021/12/10 18:44:39;;;;;;;5.70;2.70;;;;;;;;;;10427001;28;20128;-74
2021/12/10 18:49:42;;;;;;;4.07;2.00;;;;;;;;;;10419268;28;20048;-72
2021/12/10 18:54:46;;;;;;;;;;;;;;;;;;10433111;28;20036;-72
2021/12/10 18:59:53;;;;;;;2.13;0.87;;;;;;;;;;10426200;28;19920;-72
2021/12/10 19:05:03;;;;;;;4.07;2.20;;;;;;;;;;10423960;28;20393;-73
2021/12/10 19:10:08;;;;;;;17.73;3.10;;;;;;;;;;10430393;28;20450;-71
2021/12/10 19:15:16;;;;;;;4.03;2.10;;;;;;;;;;10434350;28;20568;-71
2021/12/10 19:20:22;;;;;;;3.37;2.23;;;;;;;;;;10434461;28;20049;-70
2021/12/10 19:25:28;;;;;;;5.83;2.47;;;;;;;;;;10428536;28;20061;-73
2021/12/10 19:30:35;;;;;;;3.17;1.90;;;;;;;;;;10433948;28;20044;-72
2021/12/10 19:35:40;;;;;;;4.47;2.33;;;;;;;;;;10440505;28;20029;-72
2021/12/10 19:40:44;;;;;;;9.13;2.17;;;;;;;;;;10428039;28;20029;-71
2021/12/10 19:45:51;;;;;;;3.07;1.80;;;;;;;;;;10421130;28;20041;-72
2021/12/10 19:50:57;;;;;;;4.23;1.83;;;;;;;;;;10433605;28;20124;-71
2021/12/10 19:56:06;;;;;;;6.77;2.93;;;;;;;;;;10430665;28;20092;-71
2021/12/10 20:01:13;;;;;;;1.67;1.13;;;;;;;;;;10432050;28;20118;-72
2021/12/10 20:06:18;;;;;;;2.33;1.53;;;;;;;;;;10445096;28;20049;-73
2021/12/10 20:11:23;;;;;;;4.17;2.27;;;;;;;;;;10458222;28;20108;-71
2021/12/10 20:16:30;;;;;;;4.93;2.70;;;;;;;;;;10442635;28;20042;-72
2021/12/10 20:21:37;;;;;;;5.90;1.90;;;;;;;;;;10445956;28;20061;-72
2021/12/10 20:26:43;;;;;;;3.50;1.87;;;;;;;;;;10429459;28;20854;-72
2021/12/10 20:31:50;;;;;;;3.13;1.87;;;;;;;;;;10435447;28;20405;-71
2021/12/10 20:36:56;;;;;;;7.23;2.40;;;;;;;;;;10434516;28;20372;-73
2021/12/10 20:42:01;;;;;;;2.93;1.83;;;;;;;;;;10442173;28;20042;-72
2021/12/10 20:47:08;;;;;;;3.07;1.73;;;;;;;;;;10433934;28;20037;-73
2021/12/10 20:52:14;;;;;;;5.37;2.40;;;;;;;;;;10439025;28;20037;-72
2021/12/10 20:57:19;;;;;;;2.73;1.43;;;;;;;;;;10432338;28;20034;-72
2021/12/10 21:02:25;;;;;;;6.77;2.77;;;;;;;;;;10425838;28;20033;-71
2021/12/10 21:07:33;;;;;;;5.90;2.20;;;;;;;;;;10448226;28;20048;-74
2021/12/10 21:12:37;;;;;;;1.70;0.90;;;;;;;;;;10455938;28;20033;-73
2021/12/10 21:17:46;;;;;;;3.50;1.30;;;;;;;;;;10441250;28;20037;-71
2021/12/10 21:22:52;;;;;;;4.10;1.97;;;;;;;;;;10443929;28;20045;-73
2021/12/10 21:27:59;;;;;;;2.70;1.80;;;;;;;;;;10421787;28;20041;-74
2021/12/10 21:33:07;;;;;;;3.67;2.40;;;;;;;;;;10461695;28;20068;-74
2021/12/10 21:38:11;;;;;;;4.83;2.50;;;;;;;;;;10454083;28;20111;-75
2021/12/10 21:43:18;;;;;;;2.70;1.77;;;;;;;;;;10472670;28;20059;-72
2021/12/10 21:48:23;;;;;;;1.27;0.93;;;;;;;;;;10466738;28;20074;-77
2021/12/10 21:53:27;;;;;;;5.30;1.87;;;;;;;;;;10460038;28;20036;-75
2021/12/10 21:58:32;;;;;;;1.40;0.98;;;;;;;;;;10450589;28;20049;-73
2021/12/10 22:03:38;;;;;;;4.60;2.50;;;;;;;;;;10438759;28;20055;-73
2021/12/10 22:08:43;;;;;;;2.23;1.20;;;;;;;;;;10444112;28;20087;-74
2021/12/10 22:13:48;;;;;;;1.97;1.07;;;;;;;;;;10444338;28;20102;-73
2021/12/10 22:18:55;;;;;;;1.20;0.63;;;;;;;;;;10448047;28;20036;-73
2021/12/10 22:24:06;;;;;;;2.37;1.43;;;;;;;;;;10442289;28;20059;-72
2021/12/10 22:29:11;;;;;;;1.93;1.67;;;;;;;;;;10446968;28;20083;-72
2021/12/10 22:34:17;;;;;;;2.17;1.17;;;;;;;;;;10440312;28;20045;-72
2021/12/10 22:39:29;;;;;;;2.30;1.40;;;;;;;;;;10435145;28;20044;-72
2021/12/10 22:44:35;;;;;;;1.60;1.17;;;;;;;;;;10439338;28;20043;-72
2021/12/10 22:49:43;;;;;;;1.80;1.13;;;;;;;;;;10442050;28;20609;-71
2021/12/10 22:54:48;;;;;;;2.27;1.33;;;;;;;;;;10434645;28;20125;-71
2021/12/10 22:59:53;;;;;;;3.63;1.57;;;;;;;;;;10424402;28;20586;-72
2021/12/10 23:04:59;;;;;;;2.67;1.13;;;;;;;;;;10440674;28;20040;-72
2021/12/10 23:10:07;;;;;;;4.20;1.13;;;;;;;;;;10438327;28;20029;-73
2021/12/10 23:15:11;;;;;;;4.37;2.37;;;;;;;;;;10440179;28;20041;-73
2021/12/10 23:20:18;;;;;;;3.03;1.43;;;;;;;;;;10447930;28;20037;-71
2021/12/10 23:25:24;;;;;;;2.17;1.13;;;;;;;;;;10439504;28;20044;-71
2021/12/10 23:30:30;;;;;;;1.97;0.77;;;;;;;;;;10444725;28;20598;-75
2021/12/10 23:35:35;;;;;;;1.43;0.90;;;;;;;;;;10442797;28;20068;-72
2021/12/10 23:40:43;;;;;;;2.63;1.50;;;;;;;;;;10436986;28;20056;-73
2021/12/10 23:45:48;;;;;;;0.77;0.60;;;;;;;;;;10439458;28;20049;-71
2021/12/10 23:50:51;;;;;;;1.70;0.80;;;;;;;;;;10418566;28;20037;-74
2021/12/10 23:55:56;;;;;;;2.47;0.90;;;;;;;;;;10436789;28;20046;-72
